sensor_id;sensor_type;location;lat;lon;timestamp;P1;durP1;ratioP1;P2;durP2;ratioP2
15938;SDS011;8068;51.322;9.450;2023-08-24T00:01:58;15.50;;;2.70;;
15938;SDS011;8068;51.322;9.450;2023-08-24T00:04:25;4.53;;;2.90;;
15938;SDS011;8068;51.322;9.450;2023-08-24T00:06:52;8.40;;;3.10;;
15938;SDS011;8068;51.322;9.450;2023-08-24T00:09:19;3.40;;;3.20;;
15938;SDS011;8068;51.322;9.450;2023-08-24T00:11:46;10.07;;;3.40;;
15938;SDS011;8068;51.322;9.450;2023-08-24T00:14:13;4.50;;;3.63;;
15938;SDS011;8068;51.322;9.450;2023-08-24T00:16:39;6.90;;;3.20;;
15938;SDS011;8068;51.322;9.450;2023-08-24T00:19:07;5.63;;;3.30;;
15938;SDS011;8068;51.322;9.450;2023-08-24T00:21:34;3.83;;;3.50;;
15938;SDS011;8068;51.322;9.450;2023-08-24T00:24:01;6.93;;;3.37;;
15938;SDS011;8068;51.322;9.450;2023-08-24T00:26:28;8.33;;;3.30;;
15938;SDS011;8068;51.322;9.450;2023-08-24T00:28:55;7.03;;;3.77;;
15938;SDS011;8068;51.322;9.450;2023-08-24T00:31:22;5.67;;;3.47;;
15938;SDS011;8068;51.322;9.450;2023-08-24T00:33:49;3.80;;;3.40;;
15938;SDS011;8068;51.322;9.450;2023-08-24T00:36:19;5.90;;;4.20;;
15938;SDS011;8068;51.322;9.450;2023-08-24T00:38:47;4.47;;;4.17;;
15938;SDS011;8068;51.322;9.450;2023-08-24T00:41:17;3.57;;;3.33;;
15938;SDS011;8068;51.322;9.450;2023-08-24T00:43:44;3.63;;;3.43;;
15938;SDS011;8068;51.322;9.450;2023-08-24T00:46:11;4.20;;;3.80;;
15938;SDS011;8068;51.322;9.450;2023-08-24T00:48:38;3.40;;;3.20;;
15938;SDS011;8068;51.322;9.450;2023-08-24T00:51:05;4.30;;;4.00;;
15938;SDS011;8068;51.322;9.450;2023-08-24T00:53:32;4.00;;;3.43;;
15938;SDS011;8068;51.322;9.450;2023-08-24T00:55:59;3.37;;;3.17;;
15938;SDS011;8068;51.322;9.450;2023-08-24T00:58:26;3.63;;;3.33;;
15938;SDS011;8068;51.322;9.450;2023-08-24T01:00:53;4.03;;;3.00;;
15938;SDS011;8068;51.322;9.450;2023-08-24T01:03:26;3.93;;;3.63;;
15938;SDS011;8068;51.322;9.450;2023-08-24T01:05:53;8.67;;;3.33;;
15938;SDS011;8068;51.322;9.450;2023-08-24T01:08:20;5.53;;;3.20;;
15938;SDS011;8068;51.322;9.450;2023-08-24T01:16:32;4.40;;;3.30;;
15938;SDS011;8068;51.322;9.450;2023-08-24T01:19:00;4.43;;;3.23;;
15938;SDS011;8068;51.322;9.450;2023-08-24T01:21:29;2.63;;;2.53;;
15938;SDS011;8068;51.322;9.450;2023-08-24T01:24:18;3.30;;;3.10;;
15938;SDS011;8068;51.322;9.450;2023-08-24T01:26:57;3.53;;;3.30;;
15938;SDS011;8068;51.322;9.450;2023-08-24T01:29:24;4.00;;;3.60;;
15938;SDS011;8068;51.322;9.450;2023-08-24T01:31:51;5.93;;;3.17;;
15938;SDS011;8068;51.322;9.450;2023-08-24T01:34:18;7.10;;;3.17;;
15938;SDS011;8068;51.322;9.450;2023-08-24T01:36:45;3.20;;;3.00;;
15938;SDS011;8068;51.322;9.450;2023-08-24T01:39:14;10.40;;;3.70;;
15938;SDS011;8068;51.322;9.450;2023-08-24T01:41:51;3.30;;;3.10;;
15938;SDS011;8068;51.322;9.450;2023-08-24T01:44:20;3.47;;;3.23;;
15938;SDS011;8068;51.322;9.450;2023-08-24T01:46:48;3.17;;;3.07;;
15938;SDS011;8068;51.322;9.450;2023-08-24T01:49:17;4.10;;;3.77;;
15938;SDS011;8068;51.322;9.450;2023-08-24T01:51:44;3.63;;;3.43;;
15938;SDS011;8068;51.322;9.450;2023-08-24T01:54:12;3.57;;;3.37;;
15938;SDS011;8068;51.322;9.450;2023-08-24T01:56:39;4.03;;;3.63;;
15938;SDS011;8068;51.322;9.450;2023-08-24T01:59:06;4.33;;;3.47;;
15938;SDS011;8068;51.322;9.450;2023-08-24T02:01:33;3.67;;;3.33;;
15938;SDS011;8068;51.322;9.450;2023-08-24T02:04:00;5.43;;;3.70;;
15938;SDS011;8068;51.322;9.450;2023-08-24T02:06:27;4.37;;;4.00;;
15938;SDS011;8068;51.322;9.450;2023-08-24T02:08:54;4.03;;;3.73;;
15938;SDS011;8068;51.322;9.450;2023-08-24T02:11:20;4.83;;;4.40;;
15938;SDS011;8068;51.322;9.450;2023-08-24T02:13:47;4.23;;;3.80;;
15938;SDS011;8068;51.322;9.450;2023-08-24T02:16:14;5.47;;;3.03;;
15938;SDS011;8068;51.322;9.450;2023-08-24T02:18:41;4.47;;;3.90;;
15938;SDS011;8068;51.322;9.450;2023-08-24T02:21:09;5.03;;;3.40;;
15938;SDS011;8068;51.322;9.450;2023-08-24T02:23:38;8.40;;;3.33;;
15938;SDS011;8068;51.322;9.450;2023-08-24T02:26:05;3.90;;;3.70;;
15938;SDS011;8068;51.322;9.450;2023-08-24T02:28:33;7.43;;;3.47;;
15938;SDS011;8068;51.322;9.450;2023-08-24T02:31:01;6.33;;;4.33;;
15938;SDS011;8068;51.322;9.450;2023-08-24T02:33:29;4.30;;;4.00;;
15938;SDS011;8068;51.322;9.450;2023-08-24T02:35:57;4.73;;;4.37;;
15938;SDS011;8068;51.322;9.450;2023-08-24T02:38:24;5.60;;;4.60;;
15938;SDS011;8068;51.322;9.450;2023-08-24T02:41:04;7.10;;;4.73;;
15938;SDS011;8068;51.322;9.450;2023-08-24T02:43:32;4.30;;;3.93;;
15938;SDS011;8068;51.322;9.450;2023-08-24T02:46:00;4.77;;;4.33;;
15938;SDS011;8068;51.322;9.450;2023-08-24T02:48:31;9.97;;;4.40;;
15938;SDS011;8068;51.322;9.450;2023-08-24T02:50:59;3.60;;;3.30;;
15938;SDS011;8068;51.322;9.450;2023-08-24T02:53:26;5.97;;;3.77;;
15938;SDS011;8068;51.322;9.450;2023-08-24T02:55:54;3.90;;;3.60;;
15938;SDS011;8068;51.322;9.450;2023-08-24T02:58:21;5.37;;;4.57;;
15938;SDS011;8068;51.322;9.450;2023-08-24T03:00:49;7.80;;;3.63;;
15938;SDS011;8068;51.322;9.450;2023-08-24T03:03:16;4.97;;;4.10;;
15938;SDS011;8068;51.322;9.450;2023-08-24T03:08:32;4.50;;;4.10;;
15938;SDS011;8068;51.322;9.450;2023-08-24T03:11:00;4.10;;;3.90;;
15938;SDS011;8068;51.322;9.450;2023-08-24T03:13:28;4.43;;;3.60;;
15938;SDS011;8068;51.322;9.450;2023-08-24T03:16:02;4.63;;;4.20;;
15938;SDS011;8068;51.322;9.450;2023-08-24T03:18:30;5.63;;;4.60;;
15938;SDS011;8068;51.322;9.450;2023-08-24T03:20:57;4.37;;;4.10;;
15938;SDS011;8068;51.322;9.450;2023-08-24T03:23:24;3.83;;;3.57;;
15938;SDS011;8068;51.322;9.450;2023-08-24T03:25:51;4.20;;;3.90;;
15938;SDS011;8068;51.322;9.450;2023-08-24T03:28:18;5.40;;;3.63;;
15938;SDS011;8068;51.322;9.450;2023-08-24T03:30:46;4.20;;;3.80;;
15938;SDS011;8068;51.322;9.450;2023-08-24T03:33:14;4.57;;;4.20;;
15938;SDS011;8068;51.322;9.450;2023-08-24T03:35:42;4.70;;;4.40;;
15938;SDS011;8068;51.322;9.450;2023-08-24T03:38:09;6.40;;;4.00;;
15938;SDS011;8068;51.322;9.450;2023-08-24T03:40:36;5.60;;;4.80;;
15938;SDS011;8068;51.322;9.450;2023-08-24T03:43:03;7.43;;;4.23;;
15938;SDS011;8068;51.322;9.450;2023-08-24T03:45:30;4.60;;;4.20;;
15938;SDS011;8068;51.322;9.450;2023-08-24T03:47:57;5.13;;;4.20;;
15938;SDS011;8068;51.322;9.450;2023-08-24T03:50:24;9.43;;;4.97;;
15938;SDS011;8068;51.322;9.450;2023-08-24T03:52:51;5.17;;;4.80;;
15938;SDS011;8068;51.322;9.450;2023-08-24T03:55:18;5.27;;;4.63;;
15938;SDS011;8068;51.322;9.450;2023-08-24T03:57:45;5.20;;;4.90;;
15938;SDS011;8068;51.322;9.450;2023-08-24T04:00:12;10.33;;;5.20;;
15938;SDS011;8068;51.322;9.450;2023-08-24T04:02:41;5.53;;;5.13;;
15938;SDS011;8068;51.322;9.450;2023-08-24T04:05:08;5.33;;;5.00;;
15938;SDS011;8068;51.322;9.450;2023-08-24T04:07:35;5.20;;;4.70;;
15938;SDS011;8068;51.322;9.450;2023-08-24T04:10:06;4.97;;;4.67;;
15938;SDS011;8068;51.322;9.450;2023-08-24T04:12:34;4.57;;;4.30;;
15938;SDS011;8068;51.322;9.450;2023-08-24T04:15:00;4.50;;;4.20;;
15938;SDS011;8068;51.322;9.450;2023-08-24T04:17:27;4.40;;;4.10;;
15938;SDS011;8068;51.322;9.450;2023-08-24T04:19:57;4.20;;;3.90;;
15938;SDS011;8068;51.322;9.450;2023-08-24T04:22:24;4.33;;;4.03;;
15938;SDS011;8068;51.322;9.450;2023-08-24T04:24:51;5.50;;;5.00;;
15938;SDS011;8068;51.322;9.450;2023-08-24T04:27:18;4.90;;;4.60;;
15938;SDS011;8068;51.322;9.450;2023-08-24T04:29:46;5.00;;;4.60;;
15938;SDS011;8068;51.322;9.450;2023-08-24T04:32:13;8.23;;;6.00;;
15938;SDS011;8068;51.322;9.450;2023-08-24T04:34:39;4.67;;;4.47;;
15938;SDS011;8068;51.322;9.450;2023-08-24T04:37:06;6.57;;;5.00;;
15938;SDS011;8068;51.322;9.450;2023-08-24T04:39:34;5.70;;;5.27;;
15938;SDS011;8068;51.322;9.450;2023-08-24T04:42:01;4.73;;;4.43;;
15938;SDS011;8068;51.322;9.450;2023-08-24T04:44:29;7.10;;;5.10;;
15938;SDS011;8068;51.322;9.450;2023-08-24T04:46:56;10.20;;;4.60;;
15938;SDS011;8068;51.322;9.450;2023-08-24T04:49:23;5.23;;;4.67;;
15938;SDS011;8068;51.322;9.450;2023-08-24T04:51:50;11.60;;;6.87;;
15938;SDS011;8068;51.322;9.450;2023-08-24T04:54:16;8.00;;;6.10;;
15938;SDS011;8068;51.322;9.450;2023-08-24T04:56:43;7.40;;;6.83;;
15938;SDS011;8068;51.322;9.450;2023-08-24T04:59:10;7.73;;;7.03;;
15938;SDS011;8068;51.322;9.450;2023-08-24T05:01:37;11.10;;;6.50;;
15938;SDS011;8068;51.322;9.450;2023-08-24T05:04:04;15.17;;;9.37;;
15938;SDS011;8068;51.322;9.450;2023-08-24T05:06:31;8.23;;;7.40;;
15938;SDS011;8068;51.322;9.450;2023-08-24T05:08:58;10.70;;;7.10;;
15938;SDS011;8068;51.322;9.450;2023-08-24T05:11:26;15.97;;;6.50;;
15938;SDS011;8068;51.322;9.450;2023-08-24T05:13:55;8.43;;;7.00;;
15938;SDS011;8068;51.322;9.450;2023-08-24T05:16:22;11.07;;;7.97;;
15938;SDS011;8068;51.322;9.450;2023-08-24T05:18:49;13.00;;;8.27;;
15938;SDS011;8068;51.322;9.450;2023-08-24T05:21:16;10.63;;;8.73;;
15938;SDS011;8068;51.322;9.450;2023-08-24T05:23:43;9.83;;;9.03;;
15938;SDS011;8068;51.322;9.450;2023-08-24T05:26:10;9.23;;;8.47;;
15938;SDS011;8068;51.322;9.450;2023-08-24T05:28:37;9.43;;;8.63;;
15938;SDS011;8068;51.322;9.450;2023-08-24T05:31:04;8.63;;;7.93;;
15938;SDS011;8068;51.322;9.450;2023-08-24T05:33:31;9.23;;;8.10;;
15938;SDS011;8068;51.322;9.450;2023-08-24T05:36:00;14.93;;;9.10;;
15938;SDS011;8068;51.322;9.450;2023-08-24T05:38:26;10.53;;;9.50;;
15938;SDS011;8068;51.322;9.450;2023-08-24T05:40:53;10.07;;;9.07;;
15938;SDS011;8068;51.322;9.450;2023-08-24T05:43:20;11.13;;;8.30;;
15938;SDS011;8068;51.322;9.450;2023-08-24T05:45:48;9.37;;;8.40;;
15938;SDS011;8068;51.322;9.450;2023-08-24T05:48:15;8.70;;;7.50;;
15938;SDS011;8068;51.322;9.450;2023-08-24T05:50:46;14.10;;;8.90;;
15938;SDS011;8068;51.322;9.450;2023-08-24T05:53:13;9.53;;;7.90;;
15938;SDS011;8068;51.322;9.450;2023-08-24T05:55:40;9.23;;;8.13;;
15938;SDS011;8068;51.322;9.450;2023-08-24T05:58:07;13.83;;;8.13;;
15938;SDS011;8068;51.322;9.450;2023-08-24T06:00:36;10.47;;;9.30;;
15938;SDS011;8068;51.322;9.450;2023-08-24T06:03:03;9.30;;;8.27;;
15938;SDS011;8068;51.322;9.450;2023-08-24T06:05:30;16.17;;;8.07;;
15938;SDS011;8068;51.322;9.450;2023-08-24T06:07:58;14.83;;;8.67;;
15938;SDS011;8068;51.322;9.450;2023-08-24T06:10:25;10.80;;;7.60;;
15938;SDS011;8068;51.322;9.450;2023-08-24T06:12:53;7.93;;;7.20;;
15938;SDS011;8068;51.322;9.450;2023-08-24T06:15:21;15.63;;;8.10;;
15938;SDS011;8068;51.322;9.450;2023-08-24T06:17:51;8.77;;;7.97;;
15938;SDS011;8068;51.322;9.450;2023-08-24T06:20:19;13.00;;;8.67;;
15938;SDS011;8068;51.322;9.450;2023-08-24T06:22:46;11.00;;;8.83;;
15938;SDS011;8068;51.322;9.450;2023-08-24T06:25:13;15.03;;;8.90;;
15938;SDS011;8068;51.322;9.450;2023-08-24T06:27:41;16.07;;;8.13;;
15938;SDS011;8068;51.322;9.450;2023-08-24T06:30:08;9.53;;;8.63;;
15938;SDS011;8068;51.322;9.450;2023-08-24T06:32:35;14.07;;;8.57;;
15938;SDS011;8068;51.322;9.450;2023-08-24T06:35:04;10.23;;;8.60;;
15938;SDS011;8068;51.322;9.450;2023-08-24T06:37:32;8.70;;;7.77;;
15938;SDS011;8068;51.322;9.450;2023-08-24T06:39:59;12.57;;;8.40;;
15938;SDS011;8068;51.322;9.450;2023-08-24T06:42:26;9.83;;;7.03;;
15938;SDS011;8068;51.322;9.450;2023-08-24T06:44:53;10.73;;;7.33;;
15938;SDS011;8068;51.322;9.450;2023-08-24T06:47:20;10.33;;;7.00;;
15938;SDS011;8068;51.322;9.450;2023-08-24T06:49:47;11.00;;;8.10;;
15938;SDS011;8068;51.322;9.450;2023-08-24T06:52:14;13.93;;;7.73;;
15938;SDS011;8068;51.322;9.450;2023-08-24T06:54:41;10.43;;;7.57;;
15938;SDS011;8068;51.322;9.450;2023-08-24T06:57:07;11.03;;;6.60;;
15938;SDS011;8068;51.322;9.450;2023-08-24T06:59:34;8.27;;;7.57;;
15938;SDS011;8068;51.322;9.450;2023-08-24T07:02:01;8.20;;;7.40;;
15938;SDS011;8068;51.322;9.450;2023-08-24T07:04:30;11.10;;;7.90;;
15938;SDS011;8068;51.322;9.450;2023-08-24T07:06:58;7.50;;;6.90;;
15938;SDS011;8068;51.322;9.450;2023-08-24T07:09:25;8.80;;;8.00;;
15938;SDS011;8068;51.322;9.450;2023-08-24T07:11:52;9.07;;;8.27;;
15938;SDS011;8068;51.322;9.450;2023-08-24T07:14:19;9.70;;;7.13;;
15938;SDS011;8068;51.322;9.450;2023-08-24T07:16:46;14.10;;;7.33;;
15938;SDS011;8068;51.322;9.450;2023-08-24T07:19:13;11.73;;;7.10;;
15938;SDS011;8068;51.322;9.450;2023-08-24T07:21:41;7.63;;;7.03;;
15938;SDS011;8068;51.322;9.450;2023-08-24T07:24:07;7.90;;;6.70;;
15938;SDS011;8068;51.322;9.450;2023-08-24T07:26:34;9.17;;;8.17;;
15938;SDS011;8068;51.322;9.450;2023-08-24T07:29:01;11.93;;;9.53;;
15938;SDS011;8068;51.322;9.450;2023-08-24T07:31:28;13.13;;;8.90;;
15938;SDS011;8068;51.322;9.450;2023-08-24T07:33:55;10.33;;;8.30;;
15938;SDS011;8068;51.322;9.450;2023-08-24T07:36:22;9.87;;;8.30;;
15938;SDS011;8068;51.322;9.450;2023-08-24T07:38:52;10.77;;;8.60;;
15938;SDS011;8068;51.322;9.450;2023-08-24T07:41:19;11.20;;;9.23;;
15938;SDS011;8068;51.322;9.450;2023-08-24T07:43:46;8.73;;;8.03;;
15938;SDS011;8068;51.322;9.450;2023-08-24T07:46:12;8.63;;;7.60;;
15938;SDS011;8068;51.322;9.450;2023-08-24T07:48:39;13.33;;;9.27;;
15938;SDS011;8068;51.322;9.450;2023-08-24T07:51:07;9.07;;;8.33;;
15938;SDS011;8068;51.322;9.450;2023-08-24T07:53:34;8.97;;;8.20;;
15938;SDS011;8068;51.322;9.450;2023-08-24T07:56:01;14.33;;;8.57;;
15938;SDS011;8068;51.322;9.450;2023-08-24T07:58:28;9.50;;;8.60;;
15938;SDS011;8068;51.322;9.450;2023-08-24T08:00:55;10.57;;;8.20;;
15938;SDS011;8068;51.322;9.450;2023-08-24T08:03:22;12.03;;;8.50;;
15938;SDS011;8068;51.322;9.450;2023-08-24T08:05:49;11.50;;;8.50;;
15938;SDS011;8068;51.322;9.450;2023-08-24T08:08:17;15.83;;;8.10;;
15938;SDS011;8068;51.322;9.450;2023-08-24T08:10:43;9.37;;;8.03;;
15938;SDS011;8068;51.322;9.450;2023-08-24T08:13:11;12.07;;;8.97;;
15938;SDS011;8068;51.322;9.450;2023-08-24T08:15:38;7.73;;;7.03;;
15938;SDS011;8068;51.322;9.450;2023-08-24T08:18:05;10.17;;;8.60;;
15938;SDS011;8068;51.322;9.450;2023-08-24T08:20:32;10.57;;;9.47;;
15938;SDS011;8068;51.322;9.450;2023-08-24T08:22:59;13.10;;;8.10;;
15938;SDS011;8068;51.322;9.450;2023-08-24T08:25:27;9.50;;;8.07;;
15938;SDS011;8068;51.322;9.450;2023-08-24T08:27:54;8.77;;;7.97;;
15938;SDS011;8068;51.322;9.450;2023-08-24T08:30:21;11.37;;;8.87;;
15938;SDS011;8068;51.322;9.450;2023-08-24T08:32:48;8.10;;;7.40;;
15938;SDS011;8068;51.322;9.450;2023-08-24T08:35:18;16.10;;;9.20;;
15938;SDS011;8068;51.322;9.450;2023-08-24T08:37:45;8.17;;;7.20;;
15938;SDS011;8068;51.322;9.450;2023-08-24T08:40:13;12.30;;;7.43;;
15938;SDS011;8068;51.322;9.450;2023-08-24T08:42:40;6.63;;;6.00;;
15938;SDS011;8068;51.322;9.450;2023-08-24T08:45:08;14.00;;;5.60;;
15938;SDS011;8068;51.322;9.450;2023-08-24T08:47:36;5.37;;;5.03;;
15938;SDS011;8068;51.322;9.450;2023-08-24T08:50:04;5.83;;;4.97;;
15938;SDS011;8068;51.322;9.450;2023-08-24T08:52:32;8.63;;;4.67;;
15938;SDS011;8068;51.322;9.450;2023-08-24T08:55:00;4.40;;;4.10;;
15938;SDS011;8068;51.322;9.450;2023-08-24T08:57:27;12.43;;;4.57;;
15938;SDS011;8068;51.322;9.450;2023-08-24T08:59:57;4.67;;;4.27;;
15938;SDS011;8068;51.322;9.450;2023-08-24T09:02:24;3.70;;;3.50;;
15938;SDS011;8068;51.322;9.450;2023-08-24T09:04:51;4.40;;;3.70;;
15938;SDS011;8068;51.322;9.450;2023-08-24T09:07:18;6.40;;;3.97;;
15938;SDS011;8068;51.322;9.450;2023-08-24T09:09:47;5.63;;;4.00;;
15938;SDS011;8068;51.322;9.450;2023-08-24T09:12:14;5.33;;;3.90;;
15938;SDS011;8068;51.322;9.450;2023-08-24T09:14:41;5.87;;;4.30;;
15938;SDS011;8068;51.322;9.450;2023-08-24T09:17:08;6.17;;;3.47;;
15938;SDS011;8068;51.322;9.450;2023-08-24T09:19:35;4.83;;;4.17;;
15938;SDS011;8068;51.322;9.450;2023-08-24T09:22:05;4.57;;;4.17;;
15938;SDS011;8068;51.322;9.450;2023-08-24T09:24:35;6.67;;;3.77;;
15938;SDS011;8068;51.322;9.450;2023-08-24T09:27:14;3.97;;;3.57;;
15938;SDS011;8068;51.322;9.450;2023-08-24T09:29:42;3.83;;;3.63;;
15938;SDS011;8068;51.322;9.450;2023-08-24T09:32:09;7.27;;;3.63;;
15938;SDS011;8068;51.322;9.450;2023-08-24T09:34:37;6.80;;;4.37;;
15938;SDS011;8068;51.322;9.450;2023-08-24T09:37:04;4.57;;;3.20;;
15938;SDS011;8068;51.322;9.450;2023-08-24T09:39:31;4.00;;;3.47;;
15938;SDS011;8068;51.322;9.450;2023-08-24T09:41:59;9.57;;;4.27;;
15938;SDS011;8068;51.322;9.450;2023-08-24T09:44:29;4.13;;;3.80;;
15938;SDS011;8068;51.322;9.450;2023-08-24T09:46:56;9.87;;;4.37;;
15938;SDS011;8068;51.322;9.450;2023-08-24T09:49:23;4.07;;;3.47;;
15938;SDS011;8068;51.322;9.450;2023-08-24T09:51:52;7.43;;;4.00;;
15938;SDS011;8068;51.322;9.450;2023-08-24T09:54:26;7.70;;;3.93;;
15938;SDS011;8068;51.322;9.450;2023-08-24T09:56:54;4.40;;;4.00;;
15938;SDS011;8068;51.322;9.450;2023-08-24T09:59:22;4.20;;;3.60;;
15938;SDS011;8068;51.322;9.450;2023-08-24T10:01:51;5.50;;;4.00;;
15938;SDS011;8068;51.322;9.450;2023-08-24T10:04:24;6.00;;;3.40;;
15938;SDS011;8068;51.322;9.450;2023-08-24T10:06:56;4.67;;;3.77;;
15938;SDS011;8068;51.322;9.450;2023-08-24T10:09:27;5.73;;;4.13;;
15938;SDS011;8068;51.322;9.450;2023-08-24T10:11:59;4.67;;;3.63;;
15938;SDS011;8068;51.322;9.450;2023-08-24T10:14:29;6.17;;;3.83;;
15938;SDS011;8068;51.322;9.450;2023-08-24T10:16:58;3.70;;;3.40;;
15938;SDS011;8068;51.322;9.450;2023-08-24T10:19:25;4.50;;;4.10;;
15938;SDS011;8068;51.322;9.450;2023-08-24T10:21:53;6.53;;;4.17;;
15938;SDS011;8068;51.322;9.450;2023-08-24T10:24:23;8.60;;;4.67;;
15938;SDS011;8068;51.322;9.450;2023-08-24T10:26:50;4.47;;;3.80;;
15938;SDS011;8068;51.322;9.450;2023-08-24T10:29:17;11.03;;;4.50;;
15938;SDS011;8068;51.322;9.450;2023-08-24T10:31:45;4.43;;;3.93;;
15938;SDS011;8068;51.322;9.450;2023-08-24T10:34:12;3.83;;;3.50;;
15938;SDS011;8068;51.322;9.450;2023-08-24T10:36:39;8.60;;;5.40;;
15938;SDS011;8068;51.322;9.450;2023-08-24T10:39:07;7.37;;;5.40;;
15938;SDS011;8068;51.322;9.450;2023-08-24T10:44:48;9.63;;;5.60;;
15938;SDS011;8068;51.322;9.450;2023-08-24T10:47:18;8.50;;;4.90;;
15938;SDS011;8068;51.322;9.450;2023-08-24T10:54:51;5.67;;;4.27;;
15938;SDS011;8068;51.322;9.450;2023-08-24T10:57:20;4.33;;;3.93;;
15938;SDS011;8068;51.322;9.450;2023-08-24T10:59:57;7.60;;;4.60;;
15938;SDS011;8068;51.322;9.450;2023-08-24T11:02:45;7.93;;;4.50;;
15938;SDS011;8068;51.322;9.450;2023-08-24T11:05:16;13.33;;;5.07;;
15938;SDS011;8068;51.322;9.450;2023-08-24T11:07:48;7.10;;;4.30;;
15938;SDS011;8068;51.322;9.450;2023-08-24T11:10:19;4.93;;;4.43;;
15938;SDS011;8068;51.322;9.450;2023-08-24T11:15:34;7.43;;;4.80;;
15938;SDS011;8068;51.322;9.450;2023-08-24T11:20:46;6.80;;;3.90;;
15938;SDS011;8068;51.322;9.450;2023-08-24T11:23:14;5.07;;;3.77;;
15938;SDS011;8068;51.322;9.450;2023-08-24T11:25:42;5.00;;;3.80;;
15938;SDS011;8068;51.322;9.450;2023-08-24T11:28:09;4.37;;;4.07;;
15938;SDS011;8068;51.322;9.450;2023-08-24T11:30:36;5.03;;;3.83;;
15938;SDS011;8068;51.322;9.450;2023-08-24T11:33:03;5.20;;;3.47;;
15938;SDS011;8068;51.322;9.450;2023-08-24T11:35:34;5.50;;;3.53;;
15938;SDS011;8068;51.322;9.450;2023-08-24T11:38:03;3.63;;;3.33;;
15938;SDS011;8068;51.322;9.450;2023-08-24T11:40:31;6.30;;;3.67;;
15938;SDS011;8068;51.322;9.450;2023-08-24T11:42:58;7.53;;;3.77;;
15938;SDS011;8068;51.322;9.450;2023-08-24T11:45:32;3.80;;;3.50;;
15938;SDS011;8068;51.322;9.450;2023-08-24T11:48:00;5.87;;;3.73;;
15938;SDS011;8068;51.322;9.450;2023-08-24T11:50:28;4.73;;;3.40;;
15938;SDS011;8068;51.322;9.450;2023-08-24T11:52:55;6.20;;;3.53;;
15938;SDS011;8068;51.322;9.450;2023-08-24T11:55:22;3.23;;;2.90;;
15938;SDS011;8068;51.322;9.450;2023-08-24T11:57:50;3.60;;;3.30;;
15938;SDS011;8068;51.322;9.450;2023-08-24T12:00:20;3.90;;;3.47;;
15938;SDS011;8068;51.322;9.450;2023-08-24T12:02:48;3.13;;;2.73;;
15938;SDS011;8068;51.322;9.450;2023-08-24T12:05:22;3.43;;;3.13;;
15938;SDS011;8068;51.322;9.450;2023-08-24T12:07:51;3.50;;;3.20;;
15938;SDS011;8068;51.322;9.450;2023-08-24T12:10:20;5.50;;;3.30;;
15938;SDS011;8068;51.322;9.450;2023-08-24T12:12:47;3.97;;;3.57;;
15938;SDS011;8068;51.322;9.450;2023-08-24T12:15:18;3.77;;;3.47;;
15938;SDS011;8068;51.322;9.450;2023-08-24T12:17:48;3.43;;;2.97;;
15938;SDS011;8068;51.322;9.450;2023-08-24T12:20:19;4.40;;;2.90;;
15938;SDS011;8068;51.322;9.450;2023-08-24T12:22:55;7.83;;;3.20;;
15938;SDS011;8068;51.322;9.450;2023-08-24T12:25:22;3.20;;;3.00;;
15938;SDS011;8068;51.322;9.450;2023-08-24T12:27:54;5.10;;;3.13;;
15938;SDS011;8068;51.322;9.450;2023-08-24T12:30:44;3.10;;;2.90;;
15938;SDS011;8068;51.322;9.450;2023-08-24T12:33:24;4.23;;;3.23;;
15938;SDS011;8068;51.322;9.450;2023-08-24T12:35:52;3.40;;;3.10;;
15938;SDS011;8068;51.322;9.450;2023-08-24T12:38:19;4.87;;;3.43;;
15938;SDS011;8068;51.322;9.450;2023-08-24T12:40:50;3.57;;;3.00;;
15938;SDS011;8068;51.322;9.450;2023-08-24T12:43:18;3.33;;;2.60;;
15938;SDS011;8068;51.322;9.450;2023-08-24T12:45:45;5.27;;;3.10;;
15938;SDS011;8068;51.322;9.450;2023-08-24T12:48:12;3.20;;;2.90;;
15938;SDS011;8068;51.322;9.450;2023-08-24T12:50:39;7.07;;;3.33;;
15938;SDS011;8068;51.322;9.450;2023-08-24T12:53:06;4.03;;;3.00;;
15938;SDS011;8068;51.322;9.450;2023-08-24T12:55:33;5.23;;;3.00;;
15938;SDS011;8068;51.322;9.450;2023-08-24T12:58:00;2.70;;;2.60;;
15938;SDS011;8068;51.322;9.450;2023-08-24T13:00:27;7.60;;;2.70;;
15938;SDS011;8068;51.322;9.450;2023-08-24T13:02:55;7.40;;;2.63;;
15938;SDS011;8068;51.322;9.450;2023-08-24T13:05:22;2.33;;;2.13;;
15938;SDS011;8068;51.322;9.450;2023-08-24T13:07:49;5.53;;;2.20;;
15938;SDS011;8068;51.322;9.450;2023-08-24T13:10:18;6.10;;;2.70;;
15938;SDS011;8068;51.322;9.450;2023-08-24T13:12:45;3.43;;;2.40;;
15938;SDS011;8068;51.322;9.450;2023-08-24T13:15:12;2.60;;;2.40;;
15938;SDS011;8068;51.322;9.450;2023-08-24T13:17:39;2.47;;;2.30;;
15938;SDS011;8068;51.322;9.450;2023-08-24T13:20:06;4.37;;;2.40;;
15938;SDS011;8068;51.322;9.450;2023-08-24T13:22:34;4.73;;;2.53;;
15938;SDS011;8068;51.322;9.450;2023-08-24T13:25:01;2.50;;;2.30;;
15938;SDS011;8068;51.322;9.450;2023-08-24T13:27:28;2.93;;;2.50;;
15938;SDS011;8068;51.322;9.450;2023-08-24T13:29:56;3.70;;;2.40;;
15938;SDS011;8068;51.322;9.450;2023-08-24T13:32:26;4.60;;;2.70;;
15938;SDS011;8068;51.322;9.450;2023-08-24T13:34:53;5.00;;;2.27;;
15938;SDS011;8068;51.322;9.450;2023-08-24T13:37:20;2.30;;;2.10;;
15938;SDS011;8068;51.322;9.450;2023-08-24T13:39:47;3.00;;;2.27;;
15938;SDS011;8068;51.322;9.450;2023-08-24T13:42:14;3.33;;;2.10;;
15938;SDS011;8068;51.322;9.450;2023-08-24T13:44:41;5.33;;;2.83;;
15938;SDS011;8068;51.322;9.450;2023-08-24T13:47:08;2.67;;;1.90;;
15938;SDS011;8068;51.322;9.450;2023-08-24T13:49:34;3.00;;;1.60;;
15938;SDS011;8068;51.322;9.450;2023-08-24T13:52:06;2.63;;;1.63;;
15938;SDS011;8068;51.322;9.450;2023-08-24T13:54:33;1.77;;;1.67;;
15938;SDS011;8068;51.322;9.450;2023-08-24T13:57:01;2.33;;;1.60;;
15938;SDS011;8068;51.322;9.450;2023-08-24T13:59:28;2.80;;;1.83;;
15938;SDS011;8068;51.322;9.450;2023-08-24T14:01:55;2.00;;;1.90;;
15938;SDS011;8068;51.322;9.450;2023-08-24T14:04:22;3.63;;;1.83;;
15938;SDS011;8068;51.322;9.450;2023-08-24T14:06:49;4.80;;;4.27;;
15938;SDS011;8068;51.322;9.450;2023-08-24T14:09:17;2.80;;;1.90;;
15938;SDS011;8068;51.322;9.450;2023-08-24T14:11:43;2.00;;;1.90;;
15938;SDS011;8068;51.322;9.450;2023-08-24T14:14:10;2.47;;;2.27;;
15938;SDS011;8068;51.322;9.450;2023-08-24T14:16:37;2.30;;;2.00;;
15938;SDS011;8068;51.322;9.450;2023-08-24T14:19:04;3.33;;;2.00;;
15938;SDS011;8068;51.322;9.450;2023-08-24T14:21:31;3.97;;;1.90;;
15938;SDS011;8068;51.322;9.450;2023-08-24T14:24:01;3.13;;;1.77;;
15938;SDS011;8068;51.322;9.450;2023-08-24T14:26:29;2.43;;;1.70;;
15938;SDS011;8068;51.322;9.450;2023-08-24T14:28:57;1.90;;;1.70;;
15938;SDS011;8068;51.322;9.450;2023-08-24T14:31:25;4.83;;;1.83;;
15938;SDS011;8068;51.322;9.450;2023-08-24T14:33:53;3.10;;;2.10;;
15938;SDS011;8068;51.322;9.450;2023-08-24T14:36:20;2.00;;;1.90;;
15938;SDS011;8068;51.322;9.450;2023-08-24T14:38:47;2.90;;;1.93;;
15938;SDS011;8068;51.322;9.450;2023-08-24T14:41:15;4.67;;;2.30;;
15938;SDS011;8068;51.322;9.450;2023-08-24T14:43:42;2.60;;;1.90;;
15938;SDS011;8068;51.322;9.450;2023-08-24T14:46:09;10.30;;;2.40;;
15938;SDS011;8068;51.322;9.450;2023-08-24T14:48:36;6.70;;;2.53;;
15938;SDS011;8068;51.322;9.450;2023-08-24T14:51:03;5.53;;;2.10;;
15938;SDS011;8068;51.322;9.450;2023-08-24T14:53:30;4.90;;;2.37;;
15938;SDS011;8068;51.322;9.450;2023-08-24T14:55:58;2.80;;;2.17;;
15938;SDS011;8068;51.322;9.450;2023-08-24T14:58:25;4.20;;;2.10;;
15938;SDS011;8068;51.322;9.450;2023-08-24T15:00:54;3.20;;;2.10;;
15938;SDS011;8068;51.322;9.450;2023-08-24T15:03:22;8.80;;;2.33;;
15938;SDS011;8068;51.322;9.450;2023-08-24T15:05:58;4.70;;;2.27;;
15938;SDS011;8068;51.322;9.450;2023-08-24T15:08:35;4.23;;;2.20;;
15938;SDS011;8068;51.322;9.450;2023-08-24T15:11:03;9.47;;;2.70;;
15938;SDS011;8068;51.322;9.450;2023-08-24T15:13:33;4.90;;;2.03;;
15938;SDS011;8068;51.322;9.450;2023-08-24T15:16:01;2.60;;;2.40;;
15938;SDS011;8068;51.322;9.450;2023-08-24T15:18:28;6.83;;;2.77;;
15938;SDS011;8068;51.322;9.450;2023-08-24T15:20:54;5.20;;;2.00;;
15938;SDS011;8068;51.322;9.450;2023-08-24T15:23:22;4.23;;;3.03;;
15938;SDS011;8068;51.322;9.450;2023-08-24T15:25:55;2.77;;;2.50;;